PADK/ADK METAR and TAF weather

Enter ICAO airport designator
Station Type Date Time Source
PADK METAR 2019/04/25 18:15 UTC NOAA

PADK 251815Z AUTO 06012KT 10SM OVC032 03/M03 A3026 RMK AO2 WSHFT 1755


Station Type Date Time Source
PADK Decoded METAR 2019/04/25 18:15 UTC NOAA

Adak Island, Adak Airport, AK, United States (PADK) 51-52-40N 176-38-45W 4M
Apr 25, 2019 - 02:15 PM EDT / 2019.04.25 1815 UTC
Wind: from the ENE (060 degrees) at 14 MPH (12 KT):0
Visibility: 10 mile(s):0
Sky conditions: overcast
Temperature: 37 F (3 C)
Dew Point: 26 F (-3 C)
Relative Humidity: 64%
Pressure (altimeter): 30.26 in. Hg (1024 hPa)
ob: PADK 251815Z AUTO 06012KT 10SM OVC032 03/M03 A3026 RMK AO2 WSHFT 1755
cycle: 18

Station Type Date Time Source
PADK TAF 2007/04/07 12:54 UTC NOAA

TAF PADK 070404 33010G15KT 9999 FEW025 BKN030 OVC050 QNH2900INS T03/00Z TM01/18Z COR 1205 LAST NO
AMDS AFT 0712;

Example: see airport list